Pagina principale
METAR-TAF:

METAR-TAF

Aeroporti :

Aeroporto di Trapani-Birgi

Trapani, Italia

latitudine: 37-55N, longitudine: 012-30E, altezza: 7 m

Osservazione

Il bollettino è stato emesso 30 minuti fa, alle 16:55 UTC
Vento 10 kt da nord
Temperature 21°C
Umidità 69%
Pressione 1015 hPa
Visibilità 10 km o più
Poco nuvoloso ad un'altezza di 2500 ft

METAR: LICT 311655Z 36010KT 9999 FEW025 21/15 Q1015 RMK FEW VIS MIN 9999 WIND THR13 33009KT BLU

Ora: 19:25 (17:25 UTC)

Previsione

Il bollettino è stato emesso 3 ore e 25 minuti fa, alle 14:00 UTC
Previsione valida dal 31 alle 15 UTC al 31 alle 24 UTC
Vento 12 kt da nord
Visibilità 10 km o più
Poco nuvoloso ad un'altezza di 2500 ft
Evoluzione graduale
dal 31 alle 18 UTC al 31 alle 20 UTC
Vento 5 kt da nord-est

TAF: LICT 311400Z 3115/3124 35012KT 9999 FEW025 BECMG 3118/3120 04005KT

Osservazioni e previsioni meteorologiche di più di 4000 aeroporti (messaggi METAR e TAF).

Le stazioni disponibili sono rappresentate dai dischi gialli e rossi sulla carta.

Puntare il mouse per vedere il nome della stazione.

Clicca sopra per visualizzare le osservazioni e previsioni meteorologiche.

Per cambiare la mappa : fare clic sui pulsanti verdi con una croce nera per ingrandire, il pulsante verde con un trattino per diminuire, o sulla freccia verde per le mappe adiacenti.


METAR-TAF: